Nearby METAR Reports

 

KALB - Albany, New York, USA
Distance from station: E 47mi, 75km
Updated: Tue, 19-Jun-2018 5:51am EDT
Overcast
Overcast
 Wind from calm
Wind: Calm
Temperature: 70°F , 21°C
Dew Point: 64°F , 18°C
Humidity: 83%
Barometer: 29.78 inHg , 1008.5 hPa
Clouds: Overcast
Visibility: 10 miles , 16 km
Cloud details: Few Clouds 1000 ft
Partly cloudy 2900 ft
Overcast 6000 ft
2018/06/19 09:51 KALB 190951Z 00000KT 10SM FEW010 SCT029 OVC060 21/18 A2978 RMK AO2 SLP083 T02060178
KSLK - Saranac Lake, New York, USA
Distance from station: N 110mi, 177km
Updated: Tue, 19-Jun-2018 6:05am EDT
Overcast
Overcast
 Wind from NNW
Wind: NNW 8 mph , 13 km/h
Temperature: 55°F , 13°C
Dew Point: 54°F , 12°C
Humidity: 94%
Barometer: 29.87 inHg , 1011.5 hPa
Clouds: Overcast
Visibility: 10 miles , 16 km
Cloud details: Overcast 1800 ft
2018/06/19 10:05 KSLK 191005Z AUTO 34007KT 300V010 10SM OVC018 13/12 A2987 RMK AO2 T01330122
 
KSYR - Syracuse, New York, USA
Distance from station: W 73mi, 117km
Updated: Tue, 19-Jun-2018 5:54am EDT
Mostly cloudy
Mostly cloudy
 Wind from NW
Wind: NW 8 mph , 13 km/h
Temperature: 63°F , 17°C
Dew Point: 61°F , 16°C
Humidity: 94%
Barometer: 29.90 inHg , 1012.5 hPa
Clouds: Mostly cloudy
Visibility: 10 miles , 16 km
Cloud details: Few Clouds 2000 ft
Few Clouds 4000 ft
Partly cloudy 9000 ft
Mostly cloudy 25000 ft
2018/06/19 09:54 KSYR 190954Z 32007KT 10SM FEW020 FEW040 SCT090 BKN250 17/16 A2990 RMK AO2 SLP119 T01670161 $
KBGM - Binghamton, New York, USA
Distance from station: SW 78mi, 126km
Updated: Tue, 19-Jun-2018 5:53am EDT
Overcast
Overcast
 Wind from N
Wind: N 12 mph , 19 km/h
Temperature: 64°F , 18°C
Dew Point: 61°F , 16°C
Humidity: 88%
Barometer: 29.89 inHg , 1012.2 hPa
Clouds: Overcast
Visibility: 10 miles , 16 km
Cloud details: Few Clouds 800 ft
Overcast 3400 ft
2018/06/19 09:53 KBGM 190953Z 35010KT 10SM FEW008 OVC034 18/16 A2989 RMK AO2 RAE00B29E40 SLP110 P0000 T01780161
 
KRME - Rome, New York, USA
Distance from station: WNW 43mi, 69km
Updated: Tue, 19-Jun-2018 6:23am EDT
Partly cloudy
Partly cloudy
 Wind from N
Wind: N 5 mph , 7 km/h
Temperature: 63°F , 17°C
Dew Point: 57°F , 14°C
Humidity: 83%
Barometer: 29.91 inHg , 1012.9 hPa
Clouds: Partly cloudy
Visibility: 10 miles , 16 km
Cloud details: Partly cloudy 2100 ft
2018/06/19 10:23 KRME 191023Z AUTO 36004KT 10SM SCT021 17/14 A2991 RMK AO2 T01720144
KJFK - New York, New York, USA
Distance from station: SSE 159mi, 256km
Updated: Tue, 19-Jun-2018 5:51am EDT
Mostly cloudy
Mostly cloudy
 Wind from W
Wind: W 10 mph , 17 km/h
Temperature: 77°F , 25°C
Dew Point: 73°F , 23°C
Humidity: 89%
Barometer: 29.74 inHg , 1007.1 hPa
Clouds: Mostly cloudy
Visibility: 10 miles , 16 km
Cloud details: Mostly cloudy 14000 ft
Mostly cloudy 25000 ft
2018/06/19 09:51 KJFK 190951Z 27009KT 10SM BKN140 BKN250 25/23 A2974 RMK AO2 SLP069 T02500233
 
KROC - Rochester, New York, USA
Distance from station: W 150mi, 242km
Updated: Tue, 19-Jun-2018 5:54am EDT
Mostly cloudy
Mostly cloudy
 Wind from N
Wind: N 10 mph , 17 km/h
Temperature: 64°F , 18°C
Dew Point: 57°F , 14°C
Humidity: 78%
Barometer: 29.96 inHg , 1014.6 hPa
Clouds: Mostly cloudy
Visibility: 10 miles , 16 km
Cloud details: Few Clouds 3000 ft
Few Clouds 8000 ft
Mostly cloudy 25000 ft
2018/06/19 09:54 KROC 190954Z 01009KT 10SM FEW030 FEW080 BKN250 18/14 A2996 RMK AO2 SLP144 T01780144
KART - Watertown, New York, USA
Distance from station: NNW 103mi, 166km
Updated: Tue, 19-Jun-2018 5:56am EDT
Mostly cloudy
Mostly cloudy
 Wind from NNE
Wind: NNE 7 mph , 11 km/h
Temperature: 61°F , 16°C
Dew Point: 57°F , 14°C
Humidity: 88%
Barometer: 29.91 inHg , 1012.9 hPa
Clouds: Mostly cloudy
Visibility: 10 miles , 16 km
Cloud details: Mostly cloudy 1800 ft
2018/06/19 09:56 KART 190956Z AUTO 02006KT 10SM BKN018 16/14 A2991 RMK AO2 SLP125 T01610144 $
 
KELM - Elmira-Corning, New York, USA
Distance from station: SSW 121mi, 195km
Updated: Tue, 19-Jun-2018 6:23am EDT
Overcast
Overcast
 Wind from N
Wind: N 9 mph , 15 km/h
Temperature: 66°F , 19°C
Dew Point: 63°F , 17°C
Humidity: 88%
Barometer: 29.92 inHg , 1013.2 hPa
Clouds: Overcast
Visibility: 10 miles , 16 km
Cloud details: Partly cloudy 1300 ft
Mostly cloudy 4900 ft
Overcast 6500 ft
2018/06/19 10:23 KELM 191023Z 35008KT 320V020 10SM SCT013 BKN049 OVC065 19/17 A2992 RMK AO2 T01890167 $
KJHW - Jamestown, New York, USA
Distance from station: SW 238mi, 383km
Updated: Tue, 19-Jun-2018 6:23am EDT
Mist, Overcast
Mist, Overcast
 Wind from N
Wind: N 8 mph , 13 km/h
Temperature: 63°F , 17°C
Dew Point: 63°F , 17°C
Humidity: 100%
Barometer: 29.98 inHg , 1015.2 hPa
Summary: Mist
Clouds: Overcast
Visibility: 3 miles , 5 km
Cloud details: Overcast 300 ft
2018/06/19 10:23 KJHW 191023Z AUTO 01007KT 3SM BR OVC003 17/17 A2998 RMK AO2
 
KMSS - Massena, New York, USA
Distance from station: N 141mi, 232km
Updated: Tue, 19-Jun-2018 6:13am EDT
Mostly cloudy
Mostly cloudy
 Wind from NNW
Wind: NNW 9 mph , 15 km/h, Gust: 20 mph , 31 km/h
Temperature: 57°F , 14°C
Dew Point: 52°F , 11°C
Humidity: 82%
Barometer: 29.93 inHg , 1013.5 hPa
Clouds: Mostly cloudy
Visibility: 10 miles , 16 km
Cloud details: Mostly cloudy 2700 ft
2018/06/19 10:13 KMSS 191013Z AUTO 33008G17KT 10SM BKN027 14/11 A2993 RMK AO2 T01390106 $
KBUF - Buffalo, New York, USA
Distance from station: W 204mi, 328km
Updated: Tue, 19-Jun-2018 5:54am EDT
Mostly cloudy
Mostly cloudy
 Wind from NNE
Wind: NNE 8 mph , 13 km/h
Temperature: 63°F , 17°C
Dew Point: 59°F , 15°C
Humidity: 88%
Barometer: 29.96 inHg , 1014.6 hPa
Clouds: Mostly cloudy
Visibility: 10 miles , 16 km
Cloud details: Few Clouds 6500 ft
Partly cloudy 13000 ft
Mostly cloudy 25000 ft
2018/06/19 09:54 KBUF 190954Z 02007KT 10SM FEW065 SCT130 BKN250 17/15 A2996 RMK AO2 SLP142 T01720150 $